Time;durP1;ratioP1;P1;durP2;ratioP2;P2;SDS_P1;SDS_P2;PMS_P1;PMS_P2;Temp;Humidity;BMP_temperature;BMP_pressure;BME280_temperature;BME280_humidity;BME280_pressure;Samples;Min_cycle;Max_cycle;Signal;HPM_P1;HPM_P2
2020/12/13 00:02:22;;;;;;;6.65;2.72;;;8.50;1.00;;;;;;5078218;28;20495;-91
2020/12/13 00:04:48;;;;;;;10.65;3.15;;;8.40;1.00;;;;;;5077846;28;20483;-90
2020/12/13 00:07:14;;;;;;;11.43;2.90;;;8.40;1.00;;;;;;5084951;28;20028;-90
2020/12/13 00:09:56;;;;;;;10.23;4.20;;;8.40;1.00;;;;;;5091793;28;20074;-89
2020/12/13 00:12:22;;;;;;;12.68;4.53;;;8.40;1.00;;;;;;5089161;28;20054;-88
2020/12/13 00:14:48;;;;;;;14.05;5.05;;;8.50;1.00;;;;;;5088602;28;20388;-88
2020/12/13 00:17:13;;;;;;;7.38;3.47;;;8.50;1.00;;;;;;5074499;28;20028;-89
2020/12/13 00:19:39;;;;;;;9.15;3.05;;;8.40;1.00;;;;;;5081888;28;20013;-88
2020/12/13 00:22:04;;;;;;;12.60;3.42;;;8.40;1.00;;;;;;5077704;28;20016;-88
2020/12/13 00:24:30;;;;;;;11.13;3.60;;;8.40;1.00;;;;;;5091390;28;20047;-89
2020/12/13 00:26:56;;;;;;;11.05;3.80;;;8.40;1.00;;;;;;5086808;28;20518;-89
2020/12/13 00:29:22;;;;;;;8.70;2.60;;;8.40;1.00;;;;;;5079938;28;20380;-89
2020/12/13 00:31:50;;;;;;;10.93;2.63;;;8.30;1.00;;;;;;5083045;28;20032;-88
2020/12/13 00:34:16;;;;;;;10.43;3.22;;;8.40;1.00;;;;;;5093569;28;20081;-89
2020/12/13 00:36:42;;;;;;;9.73;2.65;;;8.40;1.00;;;;;;5088984;28;20032;-89
2020/12/13 00:39:08;;;;;;;13.93;2.90;;;8.40;1.00;;;;;;5073763;28;20028;-89
2020/12/13 00:41:34;;;;;;;10.93;2.55;;;8.40;1.00;;;;;;5078937;28;20024;-89
2020/12/13 00:44:00;;;;;;;11.75;3.20;;;8.40;1.00;;;;;;5073264;28;20036;-89
2020/12/13 00:46:26;;;;;;;10.95;2.60;;;8.40;1.00;;;;;;5086692;28;20111;-89
2020/12/13 00:48:52;;;;;;;11.35;2.92;;;8.40;1.00;;;;;;5087863;28;20503;-89
2020/12/13 00:51:25;;;;;;;11.80;2.70;;;8.40;1.00;;;;;;5072481;28;20035;-89
2020/12/13 00:53:52;;;;;;;7.68;2.30;;;8.50;1.00;;;;;;5075995;28;20020;-88
2020/12/13 00:56:17;;;;;;;12.32;2.78;;;8.40;1.00;;;;;;5092440;28;20028;-88
2020/12/13 00:58:43;;;;;;;9.32;2.53;;;8.50;1.00;;;;;;5091609;28;20099;-89
2020/12/13 01:01:09;;;;;;;7.07;2.38;;;8.50;1.00;;;;;;5093189;28;20028;-88
2020/12/13 01:03:34;;;;;;;9.23;2.50;;;8.40;1.00;;;;;;5082827;28;20052;-89
2020/12/13 01:06:00;;;;;;;12.30;2.92;;;8.50;1.00;;;;;;5088218;28;20031;-89
2020/12/13 01:08:25;;;;;;;8.15;2.53;;;8.40;1.00;;;;;;5092787;28;20099;-87
2020/12/13 01:10:51;;;;;;;12.30;2.83;;;8.50;1.00;;;;;;5072890;28;20128;-89
2020/12/13 01:13:17;;;;;;;8.82;2.80;;;8.40;1.00;;;;;;5079518;28;20045;-89
2020/12/13 01:15:42;;;;;;;9.18;2.67;;;8.30;1.00;;;;;;5073822;28;20031;-89
2020/12/13 01:18:08;;;;;;;7.93;2.50;;;8.30;1.00;;;;;;5072782;28;20024;-89
2020/12/13 01:20:34;;;;;;;8.43;3.03;;;8.40;1.00;;;;;;5072394;28;20036;-89
2020/12/13 01:22:59;;;;;;;8.07;2.70;;;8.40;1.00;;;;;;5074562;28;20052;-89
2020/12/13 01:25:25;;;;;;;10.50;2.80;;;8.40;1.00;;;;;;5092969;28;20063;-89
2020/12/13 01:27:51;;;;;;;6.88;2.30;;;8.40;1.00;;;;;;5092901;28;20024;-89
2020/12/13 01:30:16;;;;;;;6.78;2.53;;;8.40;1.00;;;;;;5091566;28;20530;-89
2020/12/13 01:32:42;;;;;;;9.13;2.42;;;8.40;1.00;;;;;;5092830;28;20039;-89
2020/12/13 01:35:11;;;;;;;6.53;2.13;;;8.30;1.00;;;;;;5092652;28;20024;-89
2020/12/13 01:37:37;;;;;;;7.90;2.58;;;8.40;1.00;;;;;;5090659;28;20020;-89
2020/12/13 01:40:04;;;;;;;7.20;2.42;;;8.40;1.00;;;;;;5092358;28;20430;-89
2020/12/13 01:42:37;;;;;;;8.07;2.45;;;8.30;1.00;;;;;;5092416;28;20448;-89
2020/12/13 01:45:04;;;;;;;7.13;2.60;;;8.30;1.00;;;;;;5091619;28;20031;-89
2020/12/13 01:47:30;;;;;;;11.48;2.60;;;8.40;1.00;;;;;;5092507;28;20063;-88
2020/12/13 01:49:56;;;;;;;11.88;2.60;;;8.30;1.00;;;;;;5076203;28;20048;-89
2020/12/13 01:55:08;;;;;;;9.55;2.20;;;8.30;1.00;;;;;;5093808;28;20111;-89
2020/12/13 01:57:47;;;;;;;10.80;2.15;;;8.30;1.00;;;;;;5092586;28;20140;-88
2020/12/13 02:00:17;;;;;;;7.55;2.83;;;8.20;1.00;;;;;;5074005;28;20046;-89
2020/12/13 02:02:56;;;;;;;4.93;1.85;;;8.20;1.00;;;;;;5073457;28;20419;-89
2020/12/13 02:05:23;;;;;;;6.97;2.28;;;8.20;1.00;;;;;;5071775;28;20024;-88
2020/12/13 02:07:49;;;;;;;6.68;1.98;;;8.40;1.00;;;;;;5083897;28;20505;-89
2020/12/13 02:10:16;;;;;;;7.05;1.90;;;8.10;1.00;;;;;;5088831;28;20028;-89
2020/12/13 02:12:42;;;;;;;7.82;2.55;;;8.20;1.00;;;;;;5074541;28;20082;-89
2020/12/13 02:15:08;;;;;;;9.85;2.55;;;8.10;1.00;;;;;;5092362;28;20024;-89
2020/12/13 02:17:36;;;;;;;7.95;2.47;;;8.10;1.00;;;;;;5099480;28;20024;-88
2020/12/13 02:20:20;;;;;;;9.73;2.90;;;8.10;1.00;;;;;;5089349;28;20515;-88
2020/12/13 02:22:50;;;;;;;5.93;2.65;;;8.10;1.00;;;;;;5103128;28;20076;-89
2020/12/13 02:25:18;;;;;;;6.03;2.30;;;8.10;1.00;;;;;;5110551;28;20041;-89
2020/12/13 02:27:45;;;;;;;8.52;2.63;;;8.00;1.00;;;;;;5093526;28;20020;-89
2020/12/13 02:30:10;;;;;;;7.95;2.35;;;8.20;1.00;;;;;;5076132;28;20028;-89
2020/12/13 02:32:37;;;;;;;10.40;3.10;;;7.90;1.00;;;;;;5075917;28;20121;-89
2020/12/13 02:35:07;;;;;;;5.75;2.55;;;8.10;1.00;;;;;;5075804;28;20161;-89
2020/12/13 02:37:33;;;;;;;7.10;3.28;;;8.00;1.00;;;;;;5090510;28;20044;-87
2020/12/13 02:39:59;;;;;;;10.98;3.00;;;8.10;1.00;;;;;;5096940;28;20054;-89
2020/12/13 02:42:24;;;;;;;9.70;3.20;;;8.00;1.00;;;;;;5095940;28;20088;-88
2020/12/13 02:44:50;;;;;;;9.55;3.55;;;7.90;1.00;;;;;;5097275;28;20099;-89
2020/12/13 02:47:16;;;;;;;7.50;3.33;;;7.90;1.00;;;;;;5096858;28;20490;-89
2020/12/13 02:49:42;;;;;;;9.02;3.00;;;7.90;1.00;;;;;;5081701;28;20024;-89
2020/12/13 02:52:20;;;;;;;6.90;2.25;;;8.00;1.00;;;;;;5081248;28;20016;-89
2020/12/13 02:54:45;;;;;;;8.52;2.75;;;8.00;1.00;;;;;;5095456;28;20807;-89
2020/12/13 02:57:11;;;;;;;9.07;2.25;;;8.00;1.00;;;;;;5084292;28;20025;-89
2020/12/13 02:59:37;;;;;;;10.68;2.38;;;8.10;1.00;;;;;;5075581;28;20024;-89
2020/12/13 03:02:02;;;;;;;8.13;2.10;;;8.00;1.00;;;;;;5075195;28;20108;-89
2020/12/13 03:04:28;;;;;;;6.65;1.92;;;8.00;1.00;;;;;;5075448;28;20035;-89
2020/12/13 03:06:53;;;;;;;8.88;2.00;;;8.10;1.00;;;;;;5075058;28;20028;-89
2020/12/13 03:09:19;;;;;;;7.57;2.00;;;8.20;1.00;;;;;;5108484;28;20123;-89
2020/12/13 03:11:45;;;;;;;7.10;1.98;;;8.10;1.00;;;;;;5096945;28;20035;-89
2020/12/13 03:14:10;;;;;;;7.28;1.80;;;8.00;1.00;;;;;;5075711;28;20071;-88
2020/12/13 03:16:36;;;;;;;7.07;2.47;;;8.00;1.00;;;;;;5075842;28;20447;-89
2020/12/13 03:19:02;;;;;;;5.85;1.73;;;7.90;1.00;;;;;;5105602;28;20024;-89
2020/12/13 03:21:27;;;;;;;6.78;1.50;;;8.10;1.00;;;;;;5075008;28;20021;-89
2020/12/13 03:23:53;;;;;;;5.20;1.85;;;8.20;1.00;;;;;;5102251;28;20042;-89
2020/12/13 03:26:18;;;;;;;8.88;1.80;;;8.00;1.00;;;;;;5115537;28;20049;-89
2020/12/13 03:28:44;;;;;;;6.85;2.53;;;8.10;1.00;;;;;;5110522;28;20027;-89
2020/12/13 03:31:10;;;;;;;7.95;2.22;;;7.80;1.00;;;;;;5093878;28;20028;-89
2020/12/13 03:33:36;;;;;;;6.68;2.03;;;8.00;1.00;;;;;;5088448;28;20513;-89
2020/12/13 03:36:02;;;;;;;8.60;2.00;;;7.80;1.00;;;;;;5077332;28;20109;-89
2020/12/13 03:38:27;;;;;;;7.28;1.95;;;7.70;1.00;;;;;;5094327;28;20025;-89
2020/12/13 03:40:53;;;;;;;7.00;2.10;;;7.70;1.00;;;;;;5074563;28;20495;-89
2020/12/13 03:43:18;;;;;;;6.07;1.65;;;7.60;1.00;;;;;;5078699;28;20021;-89
2020/12/13 03:45:44;;;;;;;8.20;1.88;;;7.90;1.00;;;;;;5075458;28;20029;-89
2020/12/13 03:48:10;;;;;;;7.88;2.15;;;7.40;1.00;;;;;;5074518;28;20036;-89
2020/12/13 03:50:38;;;;;;;5.13;1.70;;;7.80;1.00;;;;;;5093794;28;20113;-88
2020/12/13 03:53:06;;;;;;;7.97;2.80;;;7.30;1.00;;;;;;5082417;28;20029;-89
2020/12/13 03:55:31;;;;;;;6.82;3.03;;;7.20;1.00;;;;;;5086016;28;20027;-89
2020/12/13 03:57:57;;;;;;;8.70;3.80;;;7.20;1.00;;;;;;5078833;28;20020;-89
2020/12/13 04:00:22;;;;;;;9.05;4.20;;;7.10;1.00;;;;;;5075804;28;20031;-89
2020/12/13 04:02:50;;;;;;;8.73;3.63;;;6.90;1.00;;;;;;5108582;28;20024;-89
2020/12/13 04:05:15;;;;;;;7.05;3.00;;;6.80;1.00;;;;;;5087163;28;20021;-89
2020/12/13 04:07:43;;;;;;;9.68;2.50;;;6.70;1.00;;;;;;5075216;28;20451;-89
2020/12/13 04:10:08;;;;;;;7.07;2.60;;;6.60;1.00;;;;;;5074005;28;20111;-89
2020/12/13 04:12:34;;;;;;;5.18;2.22;;;6.60;1.00;;;;;;5079153;28;20072;-89
2020/12/13 04:14:59;;;;;;;5.30;2.05;;;6.60;1.00;;;;;;5075803;28;20020;-89
2020/12/13 04:17:25;;;;;;;11.27;2.17;;;6.50;1.00;;;;;;5073938;28;20450;-88
2020/12/13 04:19:51;;;;;;;11.85;2.97;;;6.60;1.00;;;;;;5104895;28;20039;-88
2020/12/13 04:22:16;;;;;;;10.40;2.08;;;6.40;1.00;;;;;;5098320;28;20031;-88
2020/12/13 04:24:42;;;;;;;11.30;2.35;;;6.40;1.00;;;;;;5089791;28;20039;-89
2020/12/13 04:27:07;;;;;;;7.35;1.90;;;6.70;1.00;;;;;;5093783;28;20028;-89
2020/12/13 04:29:33;;;;;;;7.32;1.90;;;6.30;1.00;;;;;;5093492;28;20024;-89
2020/12/13 04:31:58;;;;;;;8.80;2.00;;;6.70;1.00;;;;;;5093391;28;20024;-88
2020/12/13 04:34:24;;;;;;;8.10;1.73;;;6.10;1.00;;;;;;5095096;28;20028;-88
2020/12/13 04:36:50;;;;;;;7.78;1.77;;;6.10;1.00;;;;;;5094059;28;20590;-89
2020/12/13 04:39:15;;;;;;;7.97;1.90;;;6.00;1.00;;;;;;5095875;28;20024;-88
2020/12/13 04:41:41;;;;;;;6.00;2.08;;;5.90;1.00;;;;;;5073679;28;20021;-89
2020/12/13 04:44:06;;;;;;;6.97;2.30;;;5.90;1.00;;;;;;5072443;28;20024;-89
2020/12/13 04:46:34;;;;;;;9.40;2.95;;;6.00;1.00;;;;;;5074901;28;20048;-89
2020/12/13 04:48:59;;;;;;;9.63;2.58;;;6.10;1.00;;;;;;5073313;28;20032;-89
2020/12/13 04:51:27;;;;;;;8.15;2.63;;;6.20;1.00;;;;;;5087088;28;20035;-89
2020/12/13 04:54:04;;;;;;;7.55;2.58;;;6.20;1.00;;;;;;5086656;28;20506;-89
2020/12/13 04:56:35;;;;;;;5.97;2.78;;;6.30;1.00;;;;;;5073144;28;20022;-88
2020/12/13 04:59:03;;;;;;;8.88;3.72;;;6.40;1.00;;;;;;5076642;28;20020;-89
2020/12/13 05:01:29;;;;;;;9.80;3.28;;;6.80;1.00;;;;;;5093241;28;20023;-89
2020/12/13 05:03:55;;;;;;;6.90;3.42;;;6.40;1.00;;;;;;5093335;28;20047;-89
2020/12/13 05:06:22;;;;;;;10.02;3.35;;;6.30;1.00;;;;;;5077944;28;20020;-89
2020/12/13 05:08:48;;;;;;;8.18;3.38;;;6.30;1.00;;;;;;5072638;28;20032;-89
2020/12/13 05:11:14;;;;;;;7.93;3.47;;;6.30;1.00;;;;;;5072551;28;20024;-89
2020/12/13 05:13:41;;;;;;;5.68;3.10;;;6.30;1.00;;;;;;5073541;28;20059;-89
2020/12/13 05:16:07;;;;;;;6.78;3.30;;;6.20;1.00;;;;;;5073877;28;20100;-89
2020/12/13 05:18:41;;;;;;;9.32;3.60;;;6.10;1.00;;;;;;5079112;28;20476;-89
2020/12/13 05:21:06;;;;;;;7.22;3.42;;;6.00;1.00;;;;;;5092013;28;20035;-89
2020/12/13 05:23:33;;;;;;;11.90;3.67;;;5.90;1.00;;;;;;5081010;28;20024;-88
2020/12/13 05:25:58;;;;;;;7.55;3.30;;;5.80;1.00;;;;;;5072672;28;20404;-89
2020/12/13 05:28:25;;;;;;;11.45;3.63;;;5.80;1.00;;;;;;5073015;28;20032;-89
2020/12/13 05:30:52;;;;;;;5.60;3.38;;;5.70;1.00;;;;;;5105224;28;20036;-89
2020/12/13 05:36:07;;;;;;;9.25;3.75;;;5.70;1.00;;;;;;5072142;28;20025;-89
2020/12/13 05:38:34;;;;;;;8.93;3.15;;;5.70;1.00;;;;;;5089690;28;20035;-89
2020/12/13 05:41:00;;;;;;;13.93;5.75;;;5.70;1.00;;;;;;5092116;28;20066;-88
2020/12/13 05:43:29;;;;;;;13.07;4.85;;;5.70;1.00;;;;;;5092553;28;20019;-89
2020/12/13 05:53:37;;;;;;;12.70;5.65;;;5.80;1.00;;;;;;5083831;28;20024;-87
2020/12/13 05:56:14;;;;;;;11.82;5.13;;;5.40;1.00;;;;;;5088459;28;20023;-88
2020/12/13 05:58:40;;;;;;;9.00;4.20;;;5.40;1.00;;;;;;5092479;28;20022;-88
2020/12/13 06:01:06;;;;;;;7.15;3.33;;;5.40;1.00;;;;;;5091702;28;20484;-88
2020/12/13 06:03:34;;;;;;;6.20;3.47;;;5.30;1.00;;;;;;5092746;28;20441;-88
2020/12/13 06:06:06;;;;;;;8.07;3.85;;;5.20;1.00;;;;;;5079936;28;20078;-87
2020/12/13 06:08:46;;;;;;;10.18;4.70;;;5.30;1.00;;;;;;5078960;28;20025;-88
2020/12/13 06:11:12;;;;;;;12.38;4.63;;;5.20;1.00;;;;;;5081182;28;20024;-89
2020/12/13 06:13:44;;;;;;;10.55;4.60;;;5.20;1.00;;;;;;5091987;28;20496;-89
2020/12/13 06:16:12;;;;;;;12.73;5.38;;;5.20;1.00;;;;;;5088098;28;20024;-87
2020/12/13 06:18:37;;;;;;;7.68;4.25;;;5.20;1.00;;;;;;5090760;28;20043;-89
2020/12/13 06:21:08;;;;;;;8.00;3.45;;;5.20;1.00;;;;;;5091031;28;20447;-88
2020/12/13 06:23:35;;;;;;;6.80;3.72;;;5.10;1.00;;;;;;5089316;28;20047;-89
2020/12/13 06:26:01;;;;;;;8.57;4.78;;;5.10;1.00;;;;;;5091080;28;20364;-89
2020/12/13 06:28:27;;;;;;;9.07;4.95;;;5.10;1.00;;;;;;5092240;28;20526;-89
2020/12/13 06:30:53;;;;;;;12.55;5.20;;;5.10;1.00;;;;;;5090580;28;20025;-90
2020/12/13 06:33:22;;;;;;;10.73;6.57;;;5.00;1.00;;;;;;5089870;28;20023;-88
2020/12/13 06:35:50;;;;;;;11.40;7.18;;;5.10;1.00;;;;;;5090050;28;20104;-88
2020/12/13 06:38:17;;;;;;;13.65;7.18;;;5.10;1.00;;;;;;5074913;28;20056;-87
2020/12/13 06:40:46;;;;;;;10.93;6.43;;;5.00;1.00;;;;;;5071290;28;20078;-88
2020/12/13 06:43:12;;;;;;;7.70;5.13;;;4.90;1.00;;;;;;5071729;28;20059;-88
2020/12/13 06:45:37;;;;;;;9.98;4.75;;;5.20;1.00;;;;;;5084674;28;20020;-89
2020/12/13 06:48:03;;;;;;;8.95;3.70;;;5.40;1.00;;;;;;5073508;28;20500;-88
2020/12/13 06:50:29;;;;;;;8.48;3.90;;;4.90;1.00;;;;;;5092232;28;20052;-88
2020/12/13 06:52:54;;;;;;;7.78;4.38;;;5.10;1.00;;;;;;5091738;28;20032;-89
2020/12/13 06:55:32;;;;;;;6.82;3.80;;;4.90;1.00;;;;;;5081243;28;20043;-88
2020/12/13 06:58:00;;;;;;;9.98;4.68;;;4.80;1.00;;;;;;5073184;28;20029;-93
2020/12/13 07:00:26;;;;;;;8.60;3.92;;;5.10;1.00;;;;;;5071737;28;20025;-89
2020/12/13 07:03:38;;;;;;;5.97;3.75;;;5.00;1.00;;;;;;5071532;28;20036;-89
2020/12/13 07:06:06;;;;;;;6.20;3.70;;;5.00;1.00;;;;;;5076587;28;20032;-93
2020/12/13 07:08:33;;;;;;;8.88;3.60;;;5.00;1.00;;;;;;5093214;28;20140;-90
2020/12/13 07:11:00;;;;;;;8.27;3.25;;;5.00;1.00;;;;;;5075565;28;20033;-91
2020/12/13 07:13:26;;;;;;;5.72;3.60;;;5.00;1.00;;;;;;5093574;28;20093;-92
2020/12/13 07:16:04;;;;;;;7.60;3.50;;;5.00;1.00;;;;;;5095675;28;20025;-90
2020/12/13 07:18:32;;;;;;;7.60;3.40;;;4.90;1.00;;;;;;5080395;28;20786;-90
2020/12/13 07:20:58;;;;;;;7.20;3.88;;;4.90;1.00;;;;;;5090490;28;20066;-90
2020/12/13 07:23:24;;;;;;;10.30;4.00;;;4.90;1.00;;;;;;5074842;28;20052;-90
2020/12/13 07:25:51;;;;;;;8.40;3.70;;;4.80;1.00;;;;;;5075428;28;20534;-90
2020/12/13 07:28:18;;;;;;;7.60;4.00;;;5.00;1.00;;;;;;5074954;28;20029;-90
2020/12/13 07:30:44;;;;;;;8.60;3.63;;;5.00;1.00;;;;;;5075172;28;20029;-90
2020/12/13 07:33:10;;;;;;;9.15;4.35;;;4.90;1.00;;;;;;5094024;28;20036;-90
2020/12/13 07:35:35;;;;;;;11.95;5.90;;;4.80;1.00;;;;;;5095268;28;20111;-90
2020/12/13 07:38:02;;;;;;;10.68;5.93;;;5.00;1.00;;;;;;5094885;28;20020;-90
2020/12/13 07:40:28;;;;;;;13.15;6.90;;;5.00;1.00;;;;;;5095283;28;20024;-89
2020/12/13 07:42:59;;;;;;;12.82;6.65;;;5.10;1.00;;;;;;5095118;28;20510;-90
2020/12/13 07:45:25;;;;;;;7.85;4.63;;;5.30;1.00;;;;;;5094987;28;20070;-90
2020/12/13 07:48:00;;;;;;;7.25;4.57;;;6.00;1.00;;;;;;5111972;28;20499;-90
2020/12/13 07:50:46;;;;;;;9.05;3.92;;;7.10;1.00;;;;;;5115479;28;20031;-90
2020/12/13 07:53:23;;;;;;;10.48;4.32;;;8.10;1.00;;;;;;5114100;28;20024;-90
2020/12/13 07:55:49;;;;;;;9.73;4.18;;;8.50;1.00;;;;;;5115311;28;20031;-90
2020/12/13 07:58:21;;;;;;;8.88;4.38;;;9.30;1.00;;;;;;5115345;28;20072;-90
2020/12/13 08:00:47;;;;;;;8.77;4.45;;;10.50;1.00;;;;;;5114617;28;20026;-90
2020/12/13 08:03:13;;;;;;;9.30;4.72;;;11.60;1.00;;;;;;5095921;28;20032;-90
2020/12/13 08:05:42;;;;;;;10.20;4.50;;;13.00;1.00;;;;;;5094544;28;20055;-90
2020/12/13 08:08:08;;;;;;;12.15;6.22;;;13.00;1.00;;;;;;5094327;28;20020;-90
2020/12/13 08:10:34;;;;;;;13.07;6.25;;;13.60;1.00;;;;;;5094427;28;20082;-89
2020/12/13 08:13:00;;;;;;;8.48;3.90;;;12.60;99.90;;;;;;5094498;28;20574;-90
2020/12/13 08:15:26;;;;;;;7.72;3.22;;;11.70;1.00;;;;;;5095494;28;20021;-90
2020/12/13 08:18:18;;;;;;;6.43;3.50;;;11.00;1.00;;;;;;5094565;28;20024;-90
2020/12/13 08:20:48;;;;;;;7.90;3.58;;;10.50;1.00;;;;;;5091697;28;20032;-90
2020/12/13 08:23:15;;;;;;;5.57;3.10;;;10.40;1.00;;;;;;5094544;28;20106;-90
2020/12/13 08:25:41;;;;;;;4.38;2.92;;;12.90;1.00;;;;;;5094015;28;20498;-90
2020/12/13 08:28:07;;;;;;;5.80;3.60;;;15.90;99.90;;;;;;5093874;28;20032;-90
2020/12/13 08:30:34;;;;;;;6.57;3.63;;;17.50;99.90;;;;;;5093969;28;20034;-90
2020/12/13 08:33:00;;;;;;;8.57;3.60;;;18.40;99.90;;;;;;5093847;28;20032;-90
2020/12/13 08:35:28;;;;;;;5.53;3.60;;;19.10;99.90;;;;;;5093380;28;20024;-90
2020/12/13 08:37:54;;;;;;;9.90;4.65;;;19.70;99.90;;;;;;5095327;28;20031;-90
2020/12/13 08:40:40;;;;;;;8.63;4.75;;;20.50;99.90;;;;;;5093579;28;20024;-90
2020/12/13 08:43:06;;;;;;;6.88;4.13;;;19.80;99.90;;;;;;5093532;28;20133;-90
2020/12/13 08:45:32;;;;;;;6.75;4.32;;;21.20;99.90;;;;;;5093334;28;20024;-90
2020/12/13 08:48:02;;;;;;;9.63;5.15;;;21.10;99.90;;;;;;5094787;28;20103;-90
2020/12/13 08:50:39;;;;;;;8.07;5.38;;;20.40;99.90;;;;;;5092899;28;20823;-90
2020/12/13 08:53:32;;;;;;;10.32;4.68;;;20.60;99.90;;;;;;5093542;28;20431;-90
2020/12/13 08:56:01;;;;;;;11.25;5.30;;;21.50;99.90;;;;;;5093429;28;20081;-90
2020/12/13 08:58:26;;;;;;;8.73;5.35;;;22.00;99.90;;;;;;5093207;28;20085;-90
2020/12/13 09:01:03;;;;;;;7.20;4.85;;;22.80;99.90;;;;;;5094307;28;20024;-90
2020/12/13 09:03:29;;;;;;;8.95;4.97;;;23.40;99.90;;;;;;5094314;28;20111;-91
2020/12/13 09:05:55;;;;;;;8.82;4.97;;;23.70;99.90;;;;;;5092250;28;20173;-90
2020/12/13 09:08:23;;;;;;;8.65;4.90;;;24.70;99.90;;;;;;5109528;28;20055;-90
2020/12/13 09:10:51;;;;;;;9.25;5.25;;;25.10;99.90;;;;;;5113305;28;20483;-90
2020/12/13 09:13:18;;;;;;;7.72;5.47;;;25.30;99.90;;;;;;5112884;28;20051;-90
2020/12/13 09:15:44;;;;;;;9.65;5.47;;;25.10;99.90;;;;;;5114717;28;20065;-90
2020/12/13 09:18:11;;;;;;;8.35;5.30;;;25.50;99.90;;;;;;5113035;28;20027;-91
2020/12/13 09:20:37;;;;;;;9.63;5.18;;;25.70;99.90;;;;;;5112727;28;20085;-90
2020/12/13 09:23:07;;;;;;;8.88;5.63;;;26.30;99.90;;;;;;5107746;28;20113;-91
2020/12/13 09:25:53;;;;;;;10.20;5.40;;;26.80;99.90;;;;;;5112813;28;20461;-90
2020/12/13 09:28:19;;;;;;;7.18;5.40;;;26.90;99.90;;;;;;5112829;28;20123;-91
2020/12/13 09:30:45;;;;;;;9.27;4.72;;;26.90;99.90;;;;;;5112433;28;20455;-90
2020/12/13 09:33:12;;;;;;;8.43;4.57;;;27.30;99.90;;;;;;5112510;28;20028;-91
2020/12/13 09:35:38;;;;;;;7.53;4.80;;;27.70;99.90;;;;;;5112664;28;20098;-91
2020/12/13 09:38:06;;;;;;;9.63;4.03;;;27.80;99.90;;;;;;5099556;28;20567;-91
2020/12/13 09:40:32;;;;;;;7.75;3.75;;;27.70;99.90;;;;;;5092428;28;20058;-91
2020/12/13 09:42:59;;;;;;;8.57;3.50;;;28.00;99.90;;;;;;5093394;28;20448;-91
2020/12/13 09:45:25;;;;;;;6.32;3.33;;;28.50;99.90;;;;;;5092109;28;20114;-91
2020/12/13 09:47:57;;;;;;;6.82;3.58;;;28.20;99.90;;;;;;5092454;28;20058;-91
2020/12/13 09:50:24;;;;;;;6.40;3.47;;;28.20;99.90;;;;;;5073132;28;20435;-91
2020/12/13 09:52:51;;;;;;;6.72;3.80;;;28.10;99.90;;;;;;5101092;28;20083;-91
2020/12/13 09:55:16;;;;;;;7.47;4.32;;;28.50;99.90;;;;;;5112495;28;20016;-91
2020/12/13 09:57:42;;;;;;;8.25;3.47;;;28.80;99.90;;;;;;5112400;28;20161;-91
2020/12/13 10:00:07;;;;;;;7.22;3.58;;;28.80;99.90;;;;;;5112310;28;20487;-91
2020/12/13 10:02:33;;;;;;;6.30;3.75;;;29.30;99.90;;;;;;5112091;28;20052;-91
2020/12/13 10:05:00;;;;;;;8.73;4.43;;;29.40;99.90;;;;;;5112189;28;20068;-91
2020/12/13 10:10:10;;;;;;;7.82;4.60;;;29.20;99.90;;;;;;5113291;28;20039;-91
2020/12/13 10:12:36;;;;;;;6.55;4.25;;;28.80;99.90;;;;;;5113348;28;20051;-91
2020/12/13 10:15:02;;;;;;;5.72;2.80;;;29.30;99.90;;;;;;5112168;28;21105;-91
2020/12/13 10:17:29;;;;;;;6.25;3.00;;;29.20;99.90;;;;;;5113339;28;20032;-91
2020/12/13 10:19:54;;;;;;;8.45;3.83;;;28.80;99.90;;;;;;5113352;28;20031;-91
2020/12/13 10:22:20;;;;;;;5.07;3.40;;;29.40;99.90;;;;;;5108668;28;20399;-91
2020/12/13 10:24:45;;;;;;;7.80;3.92;;;28.90;99.90;;;;;;5113427;28;20035;-91
2020/12/13 10:27:11;;;;;;;6.43;3.70;;;29.30;99.90;;;;;;5112057;28;20024;-91
2020/12/13 10:29:36;;;;;;;5.57;3.08;;;29.00;99.90;;;;;;5113221;28;20068;-91
2020/12/13 10:32:02;;;;;;;7.05;3.60;;;29.20;99.90;;;;;;5111520;28;20023;-91
2020/12/13 10:34:28;;;;;;;6.35;3.72;;;29.40;99.90;;;;;;5113217;28;20027;-90
2020/12/13 10:36:54;;;;;;;5.60;3.15;;;29.60;99.90;;;;;;5104641;28;20016;-91
2020/12/13 10:39:20;;;;;;;8.15;3.40;;;29.90;99.90;;;;;;5091618;28;20047;-91
2020/12/13 10:41:46;;;;;;;5.43;2.72;;;30.30;99.90;;;;;;5094145;28;20464;-91
2020/12/13 10:44:16;;;;;;;6.13;2.55;;;29.90;99.90;;;;;;5095543;28;20038;-91
2020/12/13 10:46:41;;;;;;;7.60;3.40;;;29.20;99.90;;;;;;5096468;28;20555;-91
2020/12/13 10:49:07;;;;;;;5.68;3.53;;;29.40;99.90;;;;;;5095299;28;20032;-91
2020/12/13 10:51:32;;;;;;;6.80;3.38;;;29.90;99.90;;;;;;5095571;28;20080;-91
2020/12/13 10:53:58;;;;;;;8.35;4.40;;;29.60;99.90;;;;;;5095118;28;20032;-91
2020/12/13 10:56:24;;;;;;;5.50;2.88;;;29.90;99.90;;;;;;5095171;28;20024;-91
2020/12/13 10:58:49;;;;;;;7.10;2.22;;;29.80;99.90;;;;;;5095302;28;20503;-91
2020/12/13 11:01:15;;;;;;;4.53;2.47;;;29.70;99.90;;;;;;5095374;28;20021;-91
2020/12/13 11:03:41;;;;;;;4.63;2.85;;;29.30;99.90;;;;;;5095215;28;20028;-91
2020/12/13 11:06:10;;;;;;;4.53;1.95;;;29.30;99.90;;;;;;5096323;28;20119;-90
2020/12/13 11:08:36;;;;;;;5.95;2.38;;;28.50;99.90;;;;;;5116688;28;20028;-91
2020/12/13 11:11:03;;;;;;;3.78;1.60;;;28.50;99.90;;;;;;5115415;28;20028;-91
2020/12/13 11:13:28;;;;;;;4.25;2.05;;;29.10;99.90;;;;;;5116162;27;20052;-91
2020/12/13 11:15:54;;;;;;;4.22;2.90;;;29.10;99.90;;;;;;5115169;28;20119;-90
2020/12/13 11:18:20;;;;;;;5.15;2.20;;;29.40;99.90;;;;;;5116563;28;20103;-91
2020/12/13 11:20:45;;;;;;;4.50;2.05;;;29.00;99.90;;;;;;5112113;28;20475;-91
2020/12/13 11:23:11;;;;;;;6.25;2.22;;;29.20;99.90;;;;;;5096105;28;20028;-91
2020/12/13 11:25:37;;;;;;;6.25;2.08;;;29.60;99.90;;;;;;5094993;28;20039;-91
2020/12/13 11:28:05;;;;;;;5.45;2.42;;;28.10;99.90;;;;;;5094800;28;20054;-91
2020/12/13 11:30:31;;;;;;;5.25;2.50;;;28.50;99.90;;;;;;5094524;28;20028;-91
2020/12/13 11:32:56;;;;;;;5.55;2.20;;;29.10;99.90;;;;;;5095767;28;20107;-92
2020/12/13 11:35:22;;;;;;;6.07;2.42;;;29.20;99.90;;;;;;5095988;28;20046;-91
2020/12/13 11:37:48;;;;;;;5.10;2.17;;;28.30;99.90;;;;;;5092878;28;20522;-91
2020/12/13 11:40:13;;;;;;;5.85;2.20;;;28.00;99.90;;;;;;5095723;28;20021;-91
2020/12/13 11:42:39;;;;;;;5.53;2.35;;;27.80;99.90;;;;;;5094364;28;20078;-91
2020/12/13 11:45:06;;;;;;;7.38;2.60;;;27.50;99.90;;;;;;5088020;28;20056;-91
2020/12/13 11:47:32;;;;;;;4.22;2.30;;;28.00;99.90;;;;;;5074007;28;20059;-91
2020/12/13 11:49:57;;;;;;;5.05;2.28;;;28.20;99.90;;;;;;5074189;28;20021;-91
2020/12/13 11:52:32;;;;;;;6.47;2.08;;;28.40;99.90;;;;;;5084563;28;20023;-91
2020/12/13 11:54:58;;;;;;;3.45;1.83;;;28.80;99.90;;;;;;5095421;28;20066;-91
2020/12/13 11:57:23;;;;;;;4.97;2.00;;;28.40;99.90;;;;;;5093918;28;20549;-91
2020/12/13 11:59:49;;;;;;;4.22;1.90;;;28.20;99.90;;;;;;5094940;28;20077;-91
2020/12/13 12:02:15;;;;;;;6.30;2.10;;;27.70;99.90;;;;;;5095473;28;20024;-91
2020/12/13 12:04:40;;;;;;;5.15;2.00;;;27.60;99.90;;;;;;5095387;28;20059;-91
2020/12/13 12:07:06;;;;;;;4.28;1.90;;;26.80;99.90;;;;;;5101977;28;20487;-91
2020/12/13 12:09:31;;;;;;;8.15;2.30;;;28.20;99.90;;;;;;5115657;28;20043;-91
2020/12/13 12:11:57;;;;;;;7.43;2.20;;;28.80;99.90;;;;;;5114261;28;20453;-91
2020/12/13 12:14:23;;;;;;;5.07;1.85;;;28.50;99.90;;;;;;5113707;28;20449;-91
2020/12/13 12:16:48;;;;;;;5.00;2.35;;;28.20;99.90;;;;;;5114235;28;20058;-91
2020/12/13 12:19:15;;;;;;;5.20;1.98;;;28.40;99.90;;;;;;5115118;28;20023;-91
2020/12/13 12:21:50;;;;;;;4.43;2.03;;;27.60;99.90;;;;;;5111858;28;20118;-91
2020/12/13 12:24:18;;;;;;;5.85;1.90;;;28.30;99.90;;;;;;5081648;28;20028;-91
2020/12/13 12:26:43;;;;;;;4.40;2.00;;;28.70;99.90;;;;;;5082848;28;20538;-93
2020/12/13 12:29:09;;;;;;;5.05;2.00;;;28.70;99.90;;;;;;5073907;28;20025;-92
2020/12/13 12:31:36;;;;;;;4.97;2.17;;;28.80;99.90;;;;;;5073433;28;20025;-92
2020/12/13 12:34:02;;;;;;;4.85;2.15;;;28.00;99.90;;;;;;5073526;28;20396;-92
2020/12/13 12:36:28;;;;;;;4.30;2.20;;;27.00;99.90;;;;;;5084723;28;20098;-93
2020/12/13 12:38:54;;;;;;;5.45;2.03;;;27.60;99.90;;;;;;5094005;28;20028;-92
2020/12/13 12:41:21;;;;;;;3.45;2.00;;;27.70;99.90;;;;;;5078904;28;20028;-93
2020/12/13 12:43:49;;;;;;;4.57;2.00;;;27.80;99.90;;;;;;5086617;28;20178;-92
2020/12/13 12:46:18;;;;;;;5.32;2.45;;;28.40;99.90;;;;;;5073185;28;20055;-94
2020/12/13 12:48:47;;;;;;;5.10;2.10;;;29.00;99.90;;;;;;5087809;28;20020;-92
2020/12/13 12:51:15;;;;;;;3.72;1.98;;;28.60;99.90;;;;;;5090475;28;20392;-91
2020/12/13 12:53:41;;;;;;;5.22;1.92;;;28.50;99.90;;;;;;5093224;28;20056;-92
2020/12/13 12:56:07;;;;;;;4.65;2.10;;;28.00;99.90;;;;;;5074652;28;20109;-92
2020/12/13 12:58:43;;;;;;;4.10;2.10;;;28.10;99.90;;;;;;5072458;28;20016;-92
2020/12/13 13:01:13;;;;;;;3.63;2.10;;;28.10;99.90;;;;;;5072433;28;20028;-92
2020/12/13 13:03:40;;;;;;;4.22;2.00;;;27.60;99.90;;;;;;5073805;28;20030;-92
2020/12/13 13:09:23;;;;;;;4.85;1.85;;;27.70;99.90;;;;;;5090587;28;20024;-91
2020/12/13 13:11:34;;;;;;;5.13;2.20;;;27.40;99.90;;;;;;5076941;28;20032;-91
2020/12/13 13:14:00;;;;;;;8.85;2.30;;;27.70;99.90;;;;;;5073450;28;20076;-92
2020/12/13 13:16:25;;;;;;;5.05;2.42;;;27.60;99.90;;;;;;5078043;28;20023;-92
2020/12/13 13:18:55;;;;;;;3.83;1.92;;;27.90;99.90;;;;;;5092322;28;20024;-92